»·PEaware :: HYDRA62 KSJT-KSKF

HYDRA62 :: KSJT-KSKF

FLIGHT INFORMATION

Flight Status: Arrived
Operator: Unknown
More flights by this operator :: More flights under this callsign
Pilot: 47th FTW Laughlin (28783)
Aircraft: BEECH AIRCRAFT T-6A TEXAN
(TEX2)
More flights by this aircraft type
Origin: KSJT San Angelo Regl/Mathis
United States
Destination: KSKF Lackland AFB Kelly Fld Annex
United States
More flights between these airports :: More routes between these airports
Route: +JCT CSI CSI2
File this flight plan on PilotEdge
Remarks:
Altitude:
(Current/Filed)
21,000ft
Speed:
(Current/Filed)
250kts
Departed: 29-Jul-20 11:38 AM
Arrived: 29-Jul-20 12:38 PM
Distance/Time
Traveled:
154nm/1:00
Distance/Time
To Go:
Arrived

Flight Plot

Page will automatically refresh every two minutes.

Flight plan parsing failed; only flown route is shown


Map Options




Map Legend


Flown Route
Filed Route
Departure Airport
Arrival Airport
Navaid (VOR, NDB)
Fix

Horizontal Profiles

Position Reports

Time Latitude Longitude Heading Altitude Ground
Speed
29-Jul-20 11:30 31.356236 -100.502578 96 1908ft 0kts
29-Jul-20 11:31 31.356236 -100.502578 96 1908ft 0kts
29-Jul-20 11:32 31.356236 -100.502578 96 1908ft 0kts
29-Jul-20 11:33 31.356448 -100.501506 35 1908ft 2kts
29-Jul-20 11:34 31.361730 -100.500292 7 1908ft 22kts
29-Jul-20 11:35 31.368686 -100.498533 44 1908ft 7kts
29-Jul-20 11:36 31.368716 -100.498480 65 1908ft 0kts
29-Jul-20 11:37 31.365459 -100.497992 185 1908ft 85kts
29-Jul-20 11:38 31.327155 -100.504213 184 4196ft 167kts
29-Jul-20 11:39 31.279504 -100.510149 185 7319ft 178kts
29-Jul-20 11:40 31.229347 -100.518802 172 10301ft 189kts
29-Jul-20 11:41 31.203383 -100.454536 140 10210ft 258kts
29-Jul-20 11:42 31.151125 -100.400280 146 8170ft 288kts
29-Jul-20 11:43 31.105508 -100.349013 138 10469ft 194kts
29-Jul-20 11:44 31.066644 -100.305353 134 13791ft 186kts
29-Jul-20 11:45 31.030255 -100.261897 135 17141ft 195kts
29-Jul-20 11:46 30.990968 -100.217186 139 19929ft 202kts
29-Jul-20 11:47 30.946652 -100.169769 141 20937ft 243kts
29-Jul-20 11:48 30.894799 -100.119401 140 20902ft 253kts
29-Jul-20 11:49 30.837369 -100.063932 140 21084ft 274kts
29-Jul-20 11:50 30.776438 -100.006793 145 20951ft 286kts
29-Jul-20 11:51 30.717818 -99.945589 132 21022ft 285kts
29-Jul-20 11:52 30.661953 -99.880161 139 20914ft 289kts
29-Jul-20 11:53 30.600054 -99.822517 139 20897ft 290kts
29-Jul-20 11:54 30.541852 -99.761133 141 21285ft 281kts
29-Jul-20 11:55 30.485884 -99.696133 131 20919ft 294kts
29-Jul-20 11:56 30.428882 -99.631718 139 20943ft 292kts
29-Jul-20 11:57 30.366367 -99.573436 141 21000ft 286kts
29-Jul-20 11:58 30.302431 -99.518906 145 21007ft 283kts
29-Jul-20 11:59 30.239431 -99.463556 144 20941ft 287kts
29-Jul-20 12:00 30.175763 -99.408264 146 20929ft 285kts
29-Jul-20 12:01 30.109372 -99.357288 145 20627ft 288kts
29-Jul-20 12:02 30.043916 -99.316036 150 18084ft 264kts
29-Jul-20 12:03 29.983915 -99.272590 139 15727ft 256kts
29-Jul-20 12:04 29.931330 -99.219851 137 13723ft 247kts
29-Jul-20 12:05 29.874969 -99.178109 142 11714ft 242kts
29-Jul-20 12:06 29.847737 -99.112340 109 9718ft 235kts
29-Jul-20 12:07 29.828029 -99.043090 106 7863ft 222kts
29-Jul-20 12:09 29.813087 -98.975021 107 5888ft 213kts
29-Jul-20 12:10 29.785128 -98.919908 142 4047ft 207kts
29-Jul-20 12:11 29.746736 -98.874701 131 4321ft 188kts
29-Jul-20 12:12 29.707132 -98.827685 138 4037ft 206kts
29-Jul-20 12:13 29.665179 -98.781292 135 3886ft 209kts
29-Jul-20 12:14 29.622575 -98.733041 138 3151ft 215kts
29-Jul-20 12:15 29.584194 -98.689254 132 3048ft 163kts
29-Jul-20 12:16 29.556631 -98.654831 128 2913ft 142kts
29-Jul-20 12:17 29.523236 -98.633485 164 2375ft 152kts
29-Jul-20 12:18 29.489818 -98.619800 161 2338ft 110kts
29-Jul-20 12:19 29.460652 -98.609014 161 1661ft 108kts
29-Jul-20 12:20 29.432394 -98.598750 157 1336ft 105kts
29-Jul-20 12:21 29.404004 -98.588523 159 850ft 105kts
29-Jul-20 12:22 29.374211 -98.577498 167 2021ft 148kts
29-Jul-20 12:23 29.323472 -98.560929 176 2366ft 219kts
29-Jul-20 12:23 29.299311 -98.600501 285 3120ft 227kts
29-Jul-20 12:25 29.351564 -98.665736 315 3083ft 243kts
29-Jul-20 12:26 29.398482 -98.719191 316 3017ft 227kts
29-Jul-20 12:26 29.445290 -98.740668 346 3106ft 216kts
29-Jul-20 12:28 29.512763 -98.765280 344 3112ft 216kts
29-Jul-20 12:29 29.570107 -98.786378 348 3151ft 215kts
29-Jul-20 12:29 29.604358 -98.756718 77 3080ft 206kts
29-Jul-20 12:30 29.593736 -98.700494 138 2986ft 203kts
29-Jul-20 12:32 29.548438 -98.648018 140 3208ft 194kts
29-Jul-20 12:32 29.509064 -98.627714 159 2439ft 165kts
29-Jul-20 12:33 29.476249 -98.615928 168 2277ft 112kts
29-Jul-20 12:34 29.447773 -98.604583 162 1737ft 108kts
29-Jul-20 12:35 29.419582 -98.594430 159 1189ft 104kts
29-Jul-20 12:36 29.393220 -98.584388 161 692ft 58kts
29-Jul-20 12:37 29.384423 -98.581088 151 692ft 33kts
29-Jul-20 12:38 29.383413 -98.577984 97 692ft 0kts
29-Jul-20 12:39 29.383413 -98.577984 97 692ft 0kts
29-Jul-20 12:40 29.387446 -98.577767 36 692ft 36kts
29-Jul-20 12:41 29.387249 -98.576236 291 692ft 0kts
29-Jul-20 12:42 29.387249 -98.576236 291 692ft 0kts
29-Jul-20 12:43 29.387249 -98.576236 291 692ft 0kts
29-Jul-20 12:44 29.387249 -98.576236 291 692ft 0kts
29-Jul-20 12:45 29.387249 -98.576236 291 692ft 0kts
29-Jul-20 12:46 29.387249 -98.576236 291 692ft 0kts
29-Jul-20 12:47 29.387249 -98.576236 291 692ft 0kts
29-Jul-20 12:48 29.387249 -98.576236 291 692ft 0kts
29-Jul-20 12:49 29.387249 -98.576236 291 692ft 0kts
29-Jul-20 12:50 29.387249 -98.576236 291 692ft 0kts
29-Jul-20 12:51 29.387249 -98.576236 291 692ft 0kts

Navigation Log

Ident Type
Flight plan parsing failed, navigation log unavailable